createdAt,value
2023-02-03T00:00:12.279Z,2.29
2023-02-03T00:02:41.663Z,2.31
2023-02-03T00:05:10.748Z,2.33
2023-02-03T00:07:41.482Z,2.32
2023-02-03T00:10:11.210Z,2.37
2023-02-03T00:12:39.548Z,2.36
2023-02-03T00:15:09.813Z,2.36
2023-02-03T00:17:39.959Z,2.33
2023-02-03T00:20:09.180Z,2.28
2023-02-03T00:22:37.820Z,2.27
2023-02-03T00:25:07.390Z,2.27
2023-02-03T00:27:36.147Z,2.26
2023-02-03T00:30:05.437Z,2.21
2023-02-03T00:32:34.215Z,2.21
2023-02-03T00:35:04.251Z,2.21
2023-02-03T00:37:33.045Z,2.20
2023-02-03T00:40:03.338Z,2.20
2023-02-03T00:42:33.496Z,2.17
2023-02-03T00:45:02.388Z,2.09
2023-02-03T00:47:31.015Z,2.06
2023-02-03T00:49:59.804Z,2.02
2023-02-03T00:52:29.862Z,2.01
2023-02-03T00:54:58.458Z,1.99
2023-02-03T00:57:27.370Z,1.94
2023-02-03T00:59:56.198Z,1.95
2023-02-03T01:02:25.145Z,1.98
2023-02-03T01:04:54.644Z,1.94
2023-02-03T01:07:23.354Z,1.90
2023-02-03T01:09:53.487Z,1.89
2023-02-03T01:12:22.528Z,1.84
2023-02-03T01:14:51.081Z,1.74
2023-02-03T01:17:19.854Z,1.77
2023-02-03T01:19:48.564Z,1.77
2023-02-03T01:22:18.965Z,1.74
2023-02-03T01:24:47.764Z,1.75
2023-02-03T01:27:17.882Z,1.73
2023-02-03T01:29:46.572Z,1.72
2023-02-03T01:32:15.464Z,1.71
2023-02-03T01:34:44.522Z,1.69
2023-02-03T01:37:14.864Z,1.69
2023-02-03T01:39:43.628Z,1.69
2023-02-03T01:42:15.497Z,1.67
2023-02-03T01:44:49.685Z,1.67
2023-02-03T01:47:29.163Z,1.64
2023-02-03T01:50:08.120Z,1.66
2023-02-03T01:52:38.225Z,1.62
2023-02-03T01:55:11.754Z,1.67
2023-02-03T01:57:48.663Z,1.62
2023-02-03T02:00:19.967Z,1.57
2023-02-03T02:02:50.316Z,1.59
2023-02-03T02:05:26.854Z,1.57
2023-02-03T02:07:58.057Z,1.54
2023-02-03T02:10:27.964Z,1.50
2023-02-03T02:12:59.078Z,1.40
2023-02-03T02:15:41.487Z,1.46
2023-02-03T02:18:29.231Z,1.38
2023-02-03T02:21:19.914Z,1.36
2023-02-03T02:24:14.220Z,1.29
2023-02-03T02:27:07.074Z,1.23
2023-02-03T02:29:57.673Z,1.16
2023-02-03T02:32:47.392Z,1.04
2023-02-03T02:35:28.117Z,0.99
2023-02-03T02:38:04.641Z,0.98
2023-02-03T02:40:43.713Z,0.95
2023-02-03T02:43:20.870Z,0.94
2023-02-03T02:45:52.627Z,0.88
2023-02-03T02:48:28.897Z,0.84
2023-02-03T02:51:00.588Z,0.88
2023-02-03T02:53:34.556Z,0.80
2023-02-03T02:56:11.052Z,0.70
2023-02-03T02:58:45.106Z,0.62
2023-02-03T03:01:16.515Z,0.56
2023-02-03T03:03:47.065Z,0.51
2023-02-03T03:06:21.463Z,0.47
2023-02-03T03:08:58.182Z,0.40
2023-02-03T03:11:29.918Z,0.38
2023-02-03T03:14:00.863Z,0.33
2023-02-03T03:16:31.094Z,0.34
2023-02-03T03:19:04.569Z,0.32
2023-02-03T03:21:38.544Z,0.29
2023-02-03T03:24:11.506Z,0.23
2023-02-03T03:26:47.302Z,0.20
2023-02-03T03:29:22.355Z,0.15
2023-02-03T03:31:51.597Z,0.16
2023-02-03T03:34:22.014Z,0.17
2023-02-03T03:36:59.534Z,0.20
2023-02-03T03:39:35.629Z,0.24
2023-02-03T03:42:13.546Z,0.27
2023-02-03T03:44:54.493Z,0.32
2023-02-03T03:47:29.368Z,0.27
2023-02-03T03:50:02.736Z,0.35
2023-02-03T03:52:36.065Z,0.33
2023-02-03T03:55:09.855Z,0.35
2023-02-03T03:57:43.136Z,0.36
2023-02-03T04:00:16.647Z,0.36
2023-02-03T04:02:52.692Z,0.40
2023-02-03T04:05:24.321Z,0.44
2023-02-03T04:07:53.193Z,0.44
2023-02-03T04:10:30.957Z,0.45
2023-02-03T04:12:59.760Z,0.46
2023-02-03T04:15:29.059Z,0.49
2023-02-03T04:17:58.296Z,0.55
2023-02-03T04:20:28.902Z,0.58
2023-02-03T04:22:58.395Z,0.56
2023-02-03T04:25:27.530Z,0.56
2023-02-03T04:27:56.911Z,0.56
2023-02-03T04:30:26.291Z,0.57
2023-02-03T04:32:55.541Z,0.57
2023-02-03T04:35:24.218Z,0.54
2023-02-03T04:37:54.558Z,0.53
2023-02-03T04:40:23.201Z,0.61
2023-02-03T04:42:51.813Z,0.58
2023-02-03T04:45:20.597Z,0.50
2023-02-03T04:47:54.433Z,0.46
2023-02-03T04:50:23.703Z,0.48
2023-02-03T04:52:53.748Z,0.49
2023-02-03T04:55:22.473Z,0.49
2023-02-03T04:57:51.170Z,0.48
2023-02-03T05:00:20.436Z,0.56
2023-02-03T05:02:49.157Z,0.52
2023-02-03T05:05:18.056Z,0.50
2023-02-03T05:07:46.718Z,0.50
2023-02-03T05:10:17.425Z,0.46
2023-02-03T05:12:46.182Z,0.39
2023-02-03T05:15:14.951Z,0.39
2023-02-03T05:17:44.095Z,0.40
2023-02-03T05:20:13.912Z,0.40
2023-02-03T05:22:43.083Z,0.37
2023-02-03T05:25:12.189Z,0.31
2023-02-03T05:27:43.157Z,0.36
2023-02-03T05:30:13.063Z,0.33
2023-02-03T05:32:41.846Z,0.32
2023-02-03T05:35:13.428Z,0.33
2023-02-03T05:37:42.187Z,0.25
2023-02-03T05:40:21.378Z,0.12
2023-02-03T05:42:51.812Z,0.17
2023-02-03T05:45:20.538Z,0.24
2023-02-03T05:47:49.267Z,0.23
2023-02-03T05:50:18.204Z,0.25
2023-02-03T05:52:47.057Z,0.24
2023-02-03T05:55:15.744Z,0.23
2023-02-03T05:57:44.435Z,0.20
2023-02-03T06:00:16.159Z,0.15
2023-02-03T06:02:44.840Z,0.15
2023-02-03T06:05:13.606Z,0.12
2023-02-03T06:07:42.728Z,0.20
2023-02-03T06:10:11.897Z,0.15
2023-02-03T06:12:40.820Z,0.13
2023-02-03T06:15:10.631Z,0.13
2023-02-03T06:17:40.828Z,0.23
2023-02-03T06:20:12.532Z,0.27
2023-02-03T06:22:41.475Z,0.32
2023-02-03T06:25:13.187Z,0.28
2023-02-03T06:27:42.435Z,0.27
2023-02-03T06:30:12.647Z,0.29
2023-02-03T06:32:42.840Z,0.31
2023-02-03T06:35:11.642Z,0.36
2023-02-03T06:37:40.297Z,0.40
2023-02-03T06:40:11.415Z,0.36
2023-02-03T06:42:40.128Z,0.51
2023-02-03T06:45:09.791Z,0.34
2023-02-03T06:47:40.622Z,0.47
2023-02-03T06:50:12.826Z,0.44
2023-02-03T06:52:41.809Z,0.33
2023-02-03T06:55:11.267Z,0.27
2023-02-03T06:57:45.776Z,0.27
2023-02-03T07:00:18.785Z,0.30
2023-02-03T07:02:48.360Z,0.29
2023-02-03T07:05:18.571Z,0.29
2023-02-03T07:07:47.329Z,0.30
2023-02-03T07:10:16.066Z,0.31
2023-02-03T07:12:44.877Z,0.36
2023-02-03T07:15:14.465Z,0.40
2023-02-03T07:17:43.017Z,0.42
2023-02-03T07:20:12.648Z,0.42
2023-02-03T07:22:44.095Z,0.49
2023-02-03T07:25:12.824Z,0.55
2023-02-03T07:27:41.415Z,0.58
2023-02-03T07:30:11.582Z,0.62
2023-02-03T07:32:40.290Z,0.64
2023-02-03T07:35:09.836Z,0.63
2023-02-03T07:37:38.251Z,0.68
2023-02-03T07:40:08.957Z,0.72
2023-02-03T07:42:37.660Z,0.73
2023-02-03T07:45:06.913Z,0.70
2023-02-03T07:47:35.587Z,0.65
2023-02-03T07:50:04.811Z,0.63
2023-02-03T07:52:33.499Z,0.66
2023-02-03T07:55:02.505Z,0.59
2023-02-03T07:57:32.586Z,0.49
2023-02-03T08:04:17.549Z,0.60
2023-02-03T08:06:46.340Z,0.64
2023-02-03T08:09:14.997Z,0.61
2023-02-03T08:11:43.775Z,0.57
2023-02-03T08:14:13.934Z,0.58
2023-02-03T08:16:43.097Z,0.60
2023-02-03T08:19:12.160Z,0.56
2023-02-03T08:21:40.832Z,0.57
2023-02-03T08:24:09.883Z,0.52
2023-02-03T08:26:38.971Z,0.52
2023-02-03T08:29:08.816Z,0.51
2023-02-03T08:31:39.403Z,0.47
2023-02-03T08:34:08.249Z,0.46
2023-02-03T08:36:40.213Z,0.42
2023-02-03T08:39:12.033Z,0.37
2023-02-03T08:41:42.122Z,0.44
2023-02-03T08:44:10.807Z,0.53
2023-02-03T08:46:44.467Z,0.54
2023-02-03T08:49:13.722Z,0.59
2023-02-03T08:51:42.696Z,0.60
2023-02-03T08:54:11.404Z,0.63
2023-02-03T08:56:40.948Z,0.69
2023-02-03T08:59:10.046Z,0.75
2023-02-03T09:01:40.908Z,0.78
2023-02-03T09:04:11.513Z,0.81
2023-02-03T09:06:41.508Z,0.86
2023-02-03T09:09:10.625Z,0.96
2023-02-03T09:11:39.318Z,0.89
2023-02-03T09:14:08.316Z,0.95
2023-02-03T09:16:37.426Z,1.02
2023-02-03T09:19:06.260Z,1.00
2023-02-03T09:21:40.403Z,1.04
2023-02-03T09:24:13.577Z,1.01
2023-02-03T09:26:42.197Z,0.99
2023-02-03T09:29:11.185Z,0.97
2023-02-03T09:31:39.953Z,0.99
2023-02-03T09:34:08.743Z,1.01
2023-02-03T09:36:40.850Z,1.04
2023-02-03T09:39:10.331Z,1.05
2023-02-03T09:42:03.780Z,1.01
2023-02-03T09:44:43.556Z,1.00
2023-02-03T09:47:17.598Z,1.02
2023-02-03T09:49:52.427Z,1.07
2023-02-03T09:52:26.562Z,1.02
2023-02-03T09:55:00.341Z,1.11
2023-02-03T09:57:31.276Z,1.06
2023-02-03T10:00:03.918Z,1.06
2023-02-03T10:02:48.134Z,1.03
2023-02-03T10:05:23.897Z,0.96
2023-02-03T10:08:04.829Z,0.89
2023-02-03T10:10:41.159Z,0.98
2023-02-03T10:13:24.561Z,1.03
2023-02-03T10:16:17.725Z,1.03
2023-02-03T10:18:52.540Z,0.93
2023-02-03T10:21:31.557Z,0.92
2023-02-03T10:24:03.416Z,0.96
2023-02-03T10:26:32.625Z,1.02
2023-02-03T10:29:09.776Z,1.10
2023-02-03T10:31:39.485Z,1.19
2023-02-03T10:34:11.893Z,1.19
2023-02-03T10:36:53.837Z,1.24
2023-02-03T10:39:33.718Z,1.23
2023-02-03T10:42:04.100Z,1.30
2023-02-03T10:44:38.609Z,1.31
2023-02-03T10:47:25.939Z,1.31
2023-02-03T10:49:57.629Z,1.34
2023-02-03T10:52:30.699Z,1.40
2023-02-03T10:55:00.911Z,1.43
2023-02-03T10:57:31.536Z,1.47
2023-02-03T11:00:22.498Z,1.57
2023-02-03T11:02:58.954Z,1.63
2023-02-03T11:05:28.137Z,1.73
2023-02-03T11:07:58.168Z,1.81
2023-02-03T11:10:37.226Z,1.84
2023-02-03T11:13:19.531Z,1.86
2023-02-03T11:15:57.243Z,1.91
2023-02-03T11:18:43.162Z,1.89
2023-02-03T11:21:14.868Z,1.86
2023-02-03T11:23:51.925Z,1.80
2023-02-03T11:26:26.000Z,1.74
2023-02-03T11:28:58.449Z,1.67
2023-02-03T11:31:29.422Z,1.65
2023-02-03T11:34:02.146Z,1.71
2023-02-03T11:36:34.043Z,1.72
2023-02-03T11:39:24.657Z,1.72
2023-02-03T11:41:55.142Z,1.70
2023-02-03T11:44:29.664Z,1.78
2023-02-03T11:47:03.619Z,1.83
2023-02-03T11:49:59.770Z,1.91
2023-02-03T11:52:49.315Z,1.91
2023-02-03T11:55:44.530Z,1.84
2023-02-03T11:58:41.262Z,1.79
2023-02-03T12:01:21.157Z,1.77
2023-02-03T12:04:16.070Z,1.74
2023-02-03T12:07:03.439Z,1.68
2023-02-03T12:09:43.590Z,1.68
2023-02-03T12:12:35.549Z,1.69
2023-02-03T12:15:19.204Z,1.64
2023-02-03T12:18:00.476Z,1.60
2023-02-03T12:20:41.893Z,1.56
2023-02-03T12:23:24.374Z,1.53
2023-02-03T12:26:07.961Z,1.46
2023-02-03T12:28:51.956Z,1.44
2023-02-03T12:31:31.897Z,1.45
2023-02-03T12:34:13.865Z,1.45
2023-02-03T12:36:46.586Z,1.49
2023-02-03T12:39:22.743Z,1.44
2023-02-03T12:42:00.034Z,1.44
2023-02-03T12:44:34.889Z,1.48
2023-02-03T12:47:14.894Z,1.50
2023-02-03T12:49:48.562Z,1.53
2023-02-03T12:52:25.265Z,1.54
2023-02-03T12:55:00.845Z,1.54
2023-02-03T12:57:35.660Z,1.51
2023-02-03T13:00:31.171Z,1.46
2023-02-03T13:03:14.431Z,1.48
2023-02-03T13:05:48.789Z,1.49
2023-02-03T13:08:25.179Z,1.49
2023-02-03T13:11:00.450Z,1.50
2023-02-03T13:13:36.797Z,1.50
2023-02-03T13:16:10.851Z,1.54
2023-02-03T13:18:45.899Z,1.54
2023-02-03T13:21:14.939Z,1.55
2023-02-03T13:23:47.710Z,1.55
2023-02-03T13:26:38.778Z,1.61
2023-02-03T13:29:24.576Z,1.63
2023-02-03T13:32:10.278Z,1.67
2023-02-03T13:35:01.611Z,1.73
2023-02-03T13:37:52.308Z,1.76
2023-02-03T13:40:33.361Z,1.82
2023-02-03T13:43:06.351Z,1.90
2023-02-03T13:45:41.789Z,1.86
2023-02-03T13:48:17.877Z,1.85
2023-02-03T13:50:49.667Z,1.85
2023-02-03T13:53:22.514Z,1.87
2023-02-03T13:55:57.114Z,1.86
2023-02-03T13:58:29.311Z,1.87
2023-02-03T14:01:25.012Z,1.89
2023-02-03T14:03:54.098Z,1.87
2023-02-03T14:06:45.952Z,1.85
2023-02-03T14:09:24.626Z,1.90
2023-02-03T14:11:53.886Z,1.91
2023-02-03T14:14:43.387Z,1.89
2023-02-03T14:17:32.449Z,1.88
2023-02-03T14:20:01.500Z,1.91
2023-02-03T14:22:31.812Z,1.91
2023-02-03T14:25:08.309Z,1.94
2023-02-03T14:27:37.501Z,1.94
2023-02-03T14:30:10.072Z,1.94
2023-02-03T14:32:51.656Z,1.97
2023-02-03T14:35:23.811Z,1.97
2023-02-03T14:37:56.170Z,1.95
2023-02-03T14:40:36.019Z,1.95
2023-02-03T14:43:25.781Z,1.95
2023-02-03T14:46:21.995Z,1.95
2023-02-03T14:49:00.350Z,1.95
2023-02-03T14:51:53.189Z,1.96
2023-02-03T14:54:40.169Z,1.95
2023-02-03T14:57:23.921Z,2.01
2023-02-03T14:59:59.259Z,2.04
2023-02-03T15:02:31.488Z,2.00
2023-02-03T15:05:36.940Z,1.99
2023-02-03T15:08:06.049Z,1.95
2023-02-03T15:10:43.919Z,2.00
2023-02-03T15:13:27.628Z,2.04
2023-02-03T15:15:59.043Z,2.09
2023-02-03T15:18:33.406Z,2.14
2023-02-03T15:21:02.162Z,2.19
2023-02-03T15:23:32.445Z,2.21
2023-02-03T15:26:03.372Z,2.24
2023-02-03T15:28:33.907Z,2.29
2023-02-03T15:31:08.465Z,2.33
2023-02-03T15:33:40.264Z,2.37
2023-02-03T15:36:18.307Z,2.41
2023-02-03T15:38:53.066Z,2.45
2023-02-03T15:41:25.004Z,2.48
2023-02-03T15:44:00.204Z,2.51
2023-02-03T15:46:33.916Z,2.59
2023-02-03T15:49:08.882Z,2.66
2023-02-03T15:51:44.242Z,2.64
2023-02-03T15:54:19.190Z,2.65
2023-02-03T15:56:57.142Z,2.63
2023-02-03T15:59:33.356Z,2.68
2023-02-03T16:02:03.690Z,2.68
2023-02-03T16:04:32.651Z,2.67
2023-02-03T16:07:01.931Z,2.63
2023-02-03T16:09:34.165Z,2.54
2023-02-03T16:12:07.434Z,2.61
2023-02-03T16:14:38.852Z,2.64
2023-02-03T16:17:07.832Z,2.66
2023-02-03T16:19:40.659Z,2.71
2023-02-03T16:22:31.660Z,2.78
2023-02-03T16:25:15.792Z,2.85
2023-02-03T16:27:46.840Z,2.98
2023-02-03T16:30:35.935Z,3.10
2023-02-03T16:33:23.994Z,3.16
2023-02-03T16:36:02.795Z,3.26
2023-02-03T16:38:41.488Z,3.28
2023-02-03T16:41:28.242Z,3.37
2023-02-03T16:44:07.006Z,3.38
2023-02-03T16:46:48.300Z,3.44
2023-02-03T16:49:26.889Z,3.52
2023-02-03T16:51:55.787Z,3.53
2023-02-03T16:54:24.681Z,3.61
2023-02-03T16:56:53.516Z,3.63
2023-02-03T16:59:22.314Z,3.60
2023-02-03T17:01:52.572Z,3.66
2023-02-03T17:04:21.401Z,3.67
2023-02-03T17:06:51.840Z,3.67
2023-02-03T17:09:22.431Z,3.73
2023-02-03T17:11:51.239Z,3.75
2023-02-03T17:14:20.059Z,3.83
2023-02-03T17:16:49.036Z,3.87
2023-02-03T17:19:19.213Z,3.89
2023-02-03T17:21:48.153Z,3.94
2023-02-03T17:24:16.984Z,3.94
2023-02-03T17:26:45.809Z,3.93
2023-02-03T17:29:14.569Z,3.86
2023-02-03T17:31:43.343Z,3.83
2023-02-03T17:34:12.101Z,3.81
2023-02-03T17:36:43.081Z,3.75
2023-02-03T17:55:05.919Z,3.69
2023-02-03T17:57:38.055Z,3.68
2023-02-03T18:00:08.377Z,3.68
2023-02-03T18:02:46.106Z,3.69
2023-02-03T18:05:14.963Z,3.69
2023-02-03T18:07:45.121Z,3.67
2023-02-03T18:10:14.110Z,3.62
2023-02-03T18:12:43.529Z,3.61
2023-02-03T18:15:12.216Z,3.59
2023-02-03T18:17:41.044Z,3.55
2023-02-03T18:20:10.898Z,3.55
2023-02-03T18:22:39.616Z,3.59
2023-02-03T18:25:10.125Z,3.60
2023-02-03T18:27:38.930Z,3.55
2023-02-03T18:30:11.685Z,3.51
2023-02-03T18:32:40.514Z,3.55
2023-02-03T18:35:13.215Z,3.57
2023-02-03T18:37:41.990Z,3.55
2023-02-03T18:40:12.889Z,3.54
2023-02-03T18:42:41.633Z,3.53
2023-02-03T18:45:13.200Z,3.52
2023-02-03T18:47:41.923Z,3.50
2023-02-03T18:50:11.117Z,3.46
2023-02-03T18:52:39.918Z,3.44
2023-02-03T18:55:09.592Z,3.47
2023-02-03T18:57:39.403Z,3.45
2023-02-03T19:00:09.862Z,3.43
2023-02-03T19:02:39.564Z,3.47
2023-02-03T19:05:12.072Z,3.45
2023-02-03T19:07:40.839Z,3.44
2023-02-03T19:10:10.459Z,3.45
2023-02-03T19:12:40.782Z,3.45
2023-02-03T19:15:10.553Z,3.46
2023-02-03T19:17:39.370Z,3.49
2023-02-03T19:20:09.753Z,3.49
2023-02-03T19:22:38.524Z,3.47
2023-02-03T19:25:07.970Z,3.49
2023-02-03T19:27:36.890Z,3.50
2023-02-03T19:30:07.738Z,3.53
2023-02-03T19:32:36.397Z,3.53
2023-02-03T19:35:05.254Z,3.54
2023-02-03T19:37:34.085Z,3.56
2023-02-03T19:40:02.783Z,3.56
2023-02-03T19:42:31.524Z,3.54
2023-02-03T19:45:00.265Z,3.57
2023-02-03T19:47:30.521Z,3.62
2023-02-03T19:49:59.630Z,3.64
2023-02-03T19:52:28.359Z,3.66
2023-02-03T19:54:57.181Z,3.68
2023-02-03T19:57:25.800Z,3.68
2023-02-03T19:59:54.588Z,3.70
2023-02-03T20:02:23.419Z,3.73
2023-02-03T20:04:53.734Z,3.77
2023-02-03T20:07:23.371Z,3.80
2023-02-03T20:09:51.758Z,3.82
2023-02-03T20:12:20.480Z,3.82
2023-02-03T20:14:49.269Z,3.79
2023-02-03T20:17:18.016Z,3.80
2023-02-03T20:19:47.227Z,3.80
2023-02-03T20:22:17.463Z,3.79
2023-02-03T20:24:46.310Z,3.81
2023-02-03T20:27:15.033Z,3.87
2023-02-03T20:29:43.959Z,3.87
2023-02-03T20:32:12.621Z,3.86
2023-02-03T20:34:42.320Z,3.90
2023-02-03T20:37:10.726Z,3.91
2023-02-03T20:39:42.021Z,3.96
2023-02-03T20:42:17.057Z,3.98
2023-02-03T20:44:45.852Z,3.97
2023-02-03T20:47:18.043Z,3.98
2023-02-03T20:49:48.090Z,4.00
2023-02-03T20:52:19.290Z,3.98
2023-02-03T20:54:49.619Z,3.97
2023-02-03T20:57:20.814Z,3.93
2023-02-03T20:59:49.738Z,3.92
2023-02-03T21:02:23.297Z,3.92
2023-02-03T21:05:01.996Z,3.95
2023-02-03T21:07:31.641Z,3.90
2023-02-03T21:10:01.715Z,3.86
2023-02-03T21:12:30.511Z,3.81
2023-02-03T21:14:59.237Z,3.81
2023-02-03T21:17:28.902Z,3.86
2023-02-03T21:19:58.084Z,3.93
2023-02-03T21:22:30.623Z,3.97
2023-02-03T21:25:03.514Z,3.97
2023-02-03T21:27:34.057Z,4.03
2023-02-03T21:30:07.850Z,4.02
2023-02-03T21:32:39.682Z,4.08
2023-02-03T21:35:25.302Z,4.19
2023-02-03T21:37:57.425Z,4.10
2023-02-03T21:40:30.232Z,4.00
2023-02-03T21:43:01.697Z,4.07
2023-02-03T21:45:43.234Z,4.00
2023-02-03T21:48:33.442Z,3.90
2023-02-03T21:51:04.366Z,3.83
2023-02-03T21:53:35.934Z,3.79
2023-02-03T21:56:20.250Z,3.81
2023-02-03T21:58:51.310Z,3.78
2023-02-03T22:01:23.201Z,3.70
2023-02-03T22:03:53.338Z,3.62
2023-02-03T22:06:26.408Z,3.55
2023-02-03T22:08:56.918Z,3.44
2023-02-03T22:11:28.562Z,3.47
2023-02-03T22:13:57.791Z,3.39
2023-02-03T22:16:26.985Z,3.32
2023-02-03T22:18:55.949Z,3.30
2023-02-03T22:21:25.092Z,3.29
2023-02-03T22:23:54.061Z,3.37
2023-02-03T22:26:22.929Z,3.42
2023-02-03T22:28:53.298Z,3.39
2023-02-03T22:31:22.818Z,3.32
2023-02-03T22:33:51.646Z,3.35
2023-02-03T22:36:22.383Z,3.37
2023-02-03T22:38:51.183Z,3.29
2023-02-03T22:41:21.077Z,3.36
2023-02-03T22:43:49.973Z,3.34
2023-02-03T22:46:20.306Z,3.33
2023-02-03T22:48:49.173Z,3.35
2023-02-03T22:51:17.895Z,3.26
2023-02-03T22:53:46.778Z,3.28
2023-02-03T22:56:15.519Z,3.32
2023-02-03T22:58:44.382Z,3.34
2023-02-03T23:01:13.049Z,3.35
2023-02-03T23:03:43.701Z,3.40
2023-02-03T23:06:12.547Z,3.44
2023-02-03T23:08:41.239Z,3.45
2023-02-03T23:11:10.108Z,3.47
2023-02-03T23:13:38.879Z,3.59
2023-02-03T23:16:07.974Z,3.70
2023-02-03T23:18:36.698Z,3.72
2023-02-03T23:21:07.262Z,3.81
2023-02-03T23:23:36.081Z,3.91
2023-02-03T23:26:04.894Z,3.99
2023-02-03T23:28:33.884Z,4.06
2023-02-03T23:31:04.251Z,4.15
2023-02-03T23:33:33.031Z,4.15
2023-02-03T23:36:00.715Z,4.15
2023-02-03T23:38:30.945Z,4.18
2023-02-03T23:40:59.747Z,4.20
2023-02-03T23:43:28.469Z,4.21
2023-02-03T23:45:57.206Z,4.23
2023-02-03T23:48:25.946Z,4.24
2023-02-03T23:50:54.672Z,4.24
2023-02-03T23:53:23.420Z,4.23
2023-02-03T23:55:53.642Z,4.21
2023-02-03T23:58:22.501Z,4.26
